Time;durP1;ratioP1;P1;durP2;ratioP2;P2;SDS_P1;SDS_P2;PMS_P1;PMS_P2;Temp;Humidity;BMP_temperature;BMP_pressure;BME280_temperature;BME280_humidity;BME280_pressure;Samples;Min_cycle;Max_cycle;Signal;HPM_P1;HPM_P2
2023/11/26 00:00:00;;;;;;;2.83;1.10;;;;;;;-2.03;100.00;91371.94;4871979;29;20120;-78
2023/11/26 00:02:26;;;;;;;2.10;1.05;;;;;;;-2.08;100.00;91380.63;4872008;29;20040;-80
2023/11/26 00:04:52;;;;;;;4.63;1.35;;;;;;;-2.10;100.00;91395.03;4871757;29;20025;-80
2023/11/26 00:07:17;;;;;;;1.80;0.95;;;;;;;-2.10;100.00;91408.88;4871641;29;20227;-79
2023/11/26 00:09:43;;;;;;;2.63;1.10;;;;;;;-2.07;100.00;91397.09;4871299;29;20060;-80
2023/11/26 00:12:08;;;;;;;1.92;1.02;;;;;;;-2.09;100.00;91414.88;4871823;29;20252;-81
2023/11/26 00:14:38;;;;;;;2.00;0.93;;;;;;;-2.05;100.00;91424.44;4870448;29;20021;-80
2023/11/26 00:17:04;;;;;;;3.42;1.10;;;;;;;-2.09;100.00;91405.19;4871634;29;20269;-80
2023/11/26 00:19:29;;;;;;;2.22;0.90;;;;;;;-2.06;100.00;91409.81;4871446;29;20025;-80
2023/11/26 00:21:55;;;;;;;3.40;0.95;;;;;;;-2.09;100.00;91412.25;4870768;29;20053;-80
2023/11/26 00:24:21;;;;;;;2.45;1.08;;;;;;;-2.06;100.00;91414.28;4870428;29;20022;-81
2023/11/26 00:26:47;;;;;;;1.13;0.70;;;;;;;-2.03;100.00;91431.97;4870055;29;20033;-80
2023/11/26 00:29:12;;;;;;;1.10;0.73;;;;;;;-2.09;100.00;91420.09;4871541;29;20051;-80
2023/11/26 00:31:38;;;;;;;1.45;0.73;;;;;;;-2.09;100.00;91420.84;4870438;29;20025;-80
2023/11/26 00:34:04;;;;;;;0.90;0.60;;;;;;;-2.03;100.00;91418.91;4869964;29;20201;-77
2023/11/26 00:36:30;;;;;;;0.95;0.65;;;;;;;-2.01;100.00;91416.78;4871310;29;20370;-78
2023/11/26 00:38:56;;;;;;;1.50;0.68;;;;;;;-2.02;100.00;91410.00;4870930;29;20037;-78
2023/11/26 00:41:21;;;;;;;0.88;0.55;;;;;;;-2.05;100.00;91419.19;4869367;29;20037;-78
2023/11/26 00:43:47;;;;;;;1.73;0.80;;;;;;;-2.00;100.00;91420.16;4870628;29;20121;-78
2023/11/26 00:46:13;;;;;;;4.55;1.05;;;;;;;-1.98;100.00;91442.28;4871010;29;20029;-79
2023/11/26 00:48:38;;;;;;;1.27;0.90;;;;;;;-2.01;100.00;91422.00;4870727;29;20029;-79
2023/11/26 00:51:07;;;;;;;2.92;0.93;;;;;;;-1.99;100.00;91419.88;4870964;29;20120;-79
2023/11/26 00:53:33;;;;;;;1.55;0.70;;;;;;;-1.94;100.00;91416.38;4870494;29;20100;-78
2023/11/26 00:55:59;;;;;;;1.73;0.88;;;;;;;-1.97;100.00;91414.34;4870661;29;20041;-79
2023/11/26 00:58:25;;;;;;;0.75;0.50;;;;;;;-1.97;100.00;91419.56;4870754;29;20017;-79
2023/11/26 01:00:51;;;;;;;1.60;0.73;;;;;;;-1.96;100.00;91432.31;4870411;29;20032;-76
2023/11/26 01:03:18;;;;;;;1.90;0.85;;;;;;;-1.93;100.00;91429.13;4868919;29;20029;-76
2023/11/26 01:05:44;;;;;;;2.50;0.95;;;;;;;-1.93;100.00;91441.41;4870276;29;20041;-77
2023/11/26 01:08:09;;;;;;;0.98;0.65;;;;;;;-1.91;100.00;91442.66;4870372;29;20050;-76
2023/11/26 01:10:35;;;;;;;2.08;0.80;;;;;;;-1.92;100.00;91440.34;4870130;29;20033;-76
2023/11/26 01:13:01;;;;;;;3.58;0.80;;;;;;;-1.94;100.00;91439.88;4870220;29;20324;-77
2023/11/26 01:15:27;;;;;;;1.17;0.70;;;;;;;-1.89;100.00;91445.75;4870215;29;20035;-76
2023/11/26 01:17:52;;;;;;;1.15;0.60;;;;;;;-1.97;100.00;91449.06;4870197;29;20239;-77
2023/11/26 01:20:18;;;;;;;1.20;0.68;;;;;;;-2.00;100.00;91452.25;4870224;29;20031;-76
2023/11/26 01:22:43;;;;;;;1.58;0.93;;;;;;;-2.02;100.00;91451.78;4870273;29;20025;-76
2023/11/26 01:25:09;;;;;;;2.05;0.70;;;;;;;-1.97;100.00;91456.91;4869115;29;20034;-77
2023/11/26 01:27:34;;;;;;;1.58;1.05;;;;;;;-1.95;100.00;91446.94;4870110;29;20356;-77
2023/11/26 01:30:00;;;;;;;0.85;0.70;;;;;;;-1.99;100.00;91459.03;4870031;29;20046;-77
2023/11/26 01:32:26;;;;;;;1.20;0.73;;;;;;;-1.94;100.00;91458.13;4870430;29;20069;-78
2023/11/26 01:34:52;;;;;;;1.73;0.90;;;;;;;-1.91;100.00;91460.94;4870103;29;20037;-78
2023/11/26 01:37:18;;;;;;;1.77;0.80;;;;;;;-1.93;100.00;91465.69;4870241;29;20040;-78
2023/11/26 01:39:44;;;;;;;1.35;0.80;;;;;;;-1.95;100.00;91470.44;4873061;29;20069;-78
2023/11/26 01:42:10;;;;;;;1.10;0.60;;;;;;;-1.98;100.00;91470.22;4872646;29;20040;-80
2023/11/26 01:44:35;;;;;;;0.65;0.52;;;;;;;-2.09;100.00;91483.50;4873724;29;20033;-81
2023/11/26 01:47:05;;;;;;;2.58;1.10;;;;;;;-2.08;100.00;91494.72;4872638;29;20133;-80
2023/11/26 01:49:32;;;;;;;1.52;0.80;;;;;;;-2.07;100.00;91488.44;4872434;29;20030;-80
2023/11/26 01:52:05;;;;;;;1.85;1.00;;;;;;;-2.08;100.00;91495.47;4873861;29;20239;-81
2023/11/26 01:54:34;;;;;;;1.27;0.77;;;;;;;-2.10;100.00;91500.22;4873504;29;20049;-81
2023/11/26 01:57:01;;;;;;;1.42;0.85;;;;;;;-2.10;100.00;91492.38;4873734;29;20025;-77
2023/11/26 01:59:27;;;;;;;1.52;0.88;;;;;;;-2.09;100.00;91504.38;4873495;29;20040;-77
2023/11/26 02:01:54;;;;;;;1.65;0.95;;;;;;;-2.14;100.00;91508.94;4873327;29;20029;-78
2023/11/26 02:04:20;;;;;;;1.67;0.70;;;;;;;-2.14;100.00;91516.75;4873409;29;20094;-78
2023/11/26 02:06:46;;;;;;;0.75;0.50;;;;;;;-2.11;100.00;91513.59;4873274;29;20315;-78
2023/11/26 02:09:13;;;;;;;1.13;0.70;;;;;;;-2.09;100.00;91520.03;4873173;29;20028;-78
2023/11/26 02:11:39;;;;;;;1.13;0.60;;;;;;;-2.08;100.00;91539.84;4872096;29;20223;-78
2023/11/26 02:14:06;;;;;;;2.75;0.95;;;;;;;-2.04;100.00;91535.59;4873385;29;20234;-77
2023/11/26 02:16:32;;;;;;;1.30;0.80;;;;;;;-2.09;100.00;91534.94;4873139;29;20025;-77
2023/11/26 02:18:57;;;;;;;1.35;0.85;;;;;;;-2.06;100.00;91550.00;4873216;29;20070;-77
2023/11/26 02:21:23;;;;;;;1.58;0.70;;;;;;;-2.08;100.00;91537.25;4872973;29;20037;-77
2023/11/26 02:23:49;;;;;;;1.75;1.10;;;;;;;-2.03;100.00;91565.09;4872845;29;20037;-77
2023/11/26 02:26:14;;;;;;;4.20;0.65;;;;;;;-2.00;100.00;91564.50;4873115;29;20021;-78
2023/11/26 02:28:43;;;;;;;2.58;1.08;;;;;;;-2.00;100.00;91564.50;4872935;29;20224;-78
2023/11/26 02:31:11;;;;;;;0.68;0.50;;;;;;;-2.03;100.00;91572.94;4872983;29;20109;-78
2023/11/26 02:33:37;;;;;;;1.83;1.00;;;;;;;-2.08;100.00;91586.06;4872937;29;20040;-78
2023/11/26 02:36:04;;;;;;;2.53;1.05;;;;;;;-2.09;100.00;91582.69;4872859;29;20030;-78
2023/11/26 02:38:30;;;;;;;1.80;1.00;;;;;;;-2.07;100.00;91585.00;4872665;29;20033;-78
2023/11/26 02:40:55;;;;;;;2.22;1.00;;;;;;;-2.07;100.00;91592.84;4872860;29;20223;-78
2023/11/26 02:43:21;;;;;;;2.42;1.40;;;;;;;-2.10;100.00;91598.63;4872559;29;20048;-78
2023/11/26 02:45:48;;;;;;;1.65;0.98;;;;;;;-2.08;100.00;91599.88;4872852;29;20284;-81
2023/11/26 02:48:13;;;;;;;2.40;1.10;;;;;;;-2.17;100.00;91595.66;4872592;29;20150;-80
2023/11/26 02:50:39;;;;;;;1.92;1.13;;;;;;;-2.14;100.00;91595.06;4872044;29;20025;-80
2023/11/26 02:53:04;;;;;;;1.55;0.90;;;;;;;-2.24;100.00;91596.81;4872473;29;20239;-80
2023/11/26 02:55:30;;;;;;;2.25;1.17;;;;;;;-2.19;100.00;91595.16;4872410;29;20028;-80
2023/11/26 02:57:55;;;;;;;1.15;0.80;;;;;;;-2.15;100.00;91606.56;4872719;29;20033;-80
2023/11/26 03:00:22;;;;;;;1.88;0.93;;;;;;;-2.19;100.00;91606.38;4872334;29;20328;-77
2023/11/26 03:02:47;;;;;;;1.13;0.80;;;;;;;-2.20;100.00;91612.63;4872344;29;20265;-79
2023/11/26 03:05:21;;;;;;;1.60;0.80;;;;;;;-2.14;100.00;91623.75;4871268;29;20082;-79
2023/11/26 03:07:50;;;;;;;3.33;1.10;;;;;;;-2.16;100.00;91646.78;4872489;29;20056;-79
2023/11/26 03:13:20;;;;;;;2.08;1.00;;;;;;;-2.19;100.00;91644.75;4872183;29;20033;-78
2023/11/26 03:15:48;;;;;;;1.38;0.80;;;;;;;-2.27;100.00;91641.72;4872258;29;20219;-77
2023/11/26 03:18:14;;;;;;;1.25;0.85;;;;;;;-2.28;100.00;91644.63;4872096;29;20052;-78
2023/11/26 03:20:41;;;;;;;1.50;0.85;;;;;;;-2.28;100.00;91649.84;4871857;29;20029;-78
2023/11/26 03:23:09;;;;;;;2.75;1.10;;;;;;;-2.28;100.00;91640.19;4871931;29;20029;-78
2023/11/26 03:25:35;;;;;;;2.35;1.30;;;;;;;-2.30;100.00;91644.94;4872003;29;20037;-78
2023/11/26 03:28:00;;;;;;;4.88;1.50;;;;;;;-2.32;100.00;91662.72;4871917;29;20040;-78
2023/11/26 03:30:26;;;;;;;3.30;1.83;;;;;;;-2.38;100.00;91671.69;4871986;29;20029;-79
2023/11/26 03:32:55;;;;;;;2.65;1.58;;;;;;;-2.40;100.00;91676.41;4871858;29;20073;-78
2023/11/26 03:35:21;;;;;;;3.30;2.13;;;;;;;-2.41;100.00;91695.72;4871990;29;20032;-79
2023/11/26 03:37:47;;;;;;;4.50;2.35;;;;;;;-2.43;100.00;91679.59;4871946;29;20322;-79
2023/11/26 03:40:13;;;;;;;4.03;2.00;;;;;;;-2.42;100.00;91675.94;4871740;29;20030;-78
2023/11/26 03:42:39;;;;;;;4.47;2.40;;;;;;;-2.43;100.00;91703.06;4871597;29;20292;-78
2023/11/26 03:45:08;;;;;;;3.80;2.08;;;;;;;-2.45;100.00;91697.34;4871557;29;20029;-78
2023/11/26 03:47:34;;;;;;;4.20;2.03;;;;;;;-2.43;100.00;91690.03;4871776;29;20060;-78
2023/11/26 03:49:59;;;;;;;4.88;2.63;;;;;;;-2.43;100.00;91729.16;4870510;29;20327;-80
2023/11/26 03:52:25;;;;;;;5.32;2.13;;;;;;;-2.44;100.00;91704.91;4871497;29;20323;-80
2023/11/26 03:54:51;;;;;;;4.20;2.13;;;;;;;-2.39;100.00;91719.69;4871352;29;20095;-80
2023/11/26 03:57:17;;;;;;;5.03;2.40;;;;;;;-2.37;100.00;91714.97;4870237;29;20021;-80
2023/11/26 03:59:43;;;;;;;8.23;3.33;;;;;;;-2.37;100.00;91729.84;4870290;29;20326;-80
2023/11/26 04:02:09;;;;;;;6.05;3.20;;;;;;;-2.37;100.00;91730.63;4870659;29;20096;-80
2023/11/26 04:04:34;;;;;;;7.93;3.50;;;;;;;-2.33;100.00;91746.50;4871279;29;20036;-79
2023/11/26 04:07:00;;;;;;;5.45;3.28;;;;;;;-2.39;100.00;91740.56;4871014;29;20032;-79
2023/11/26 04:09:26;;;;;;;6.40;3.70;;;;;;;-2.37;100.00;91750.72;4870142;29;20036;-79
2023/11/26 04:11:56;;;;;;;6.60;3.28;;;;;;;-2.44;100.00;91766.75;4871375;29;20298;-82
2023/11/26 04:14:22;;;;;;;7.07;3.30;;;;;;;-2.51;99.84;91761.09;4871507;29;20017;-82
2023/11/26 04:16:48;;;;;;;5.70;3.15;;;;;;;-2.53;99.14;91768.44;4871287;29;20028;-81
2023/11/26 04:19:17;;;;;;;6.95;4.47;;;;;;;-2.57;98.88;91775.28;4871884;29;20220;-84
2023/11/26 04:21:46;;;;;;;6.30;3.55;;;;;;;-2.65;98.67;91781.91;4870414;29;20037;-83
2023/11/26 04:24:12;;;;;;;6.95;3.45;;;;;;;-2.65;97.86;91793.09;4871657;29;20030;-84
2023/11/26 04:26:38;;;;;;;9.32;3.97;;;;;;;-2.71;98.07;91801.28;4871350;29;20252;-82
2023/11/26 04:29:04;;;;;;;7.63;3.83;;;;;;;-2.60;98.34;91809.75;4871276;29;20069;-81
2023/11/26 04:31:29;;;;;;;5.85;3.67;;;;;;;-2.68;97.00;91796.28;4870469;29;20315;-81
2023/11/26 04:33:54;;;;;;;6.00;3.10;;;;;;;-2.74;96.97;91804.47;4870342;29;20030;-81
2023/11/26 04:36:21;;;;;;;8.05;4.05;;;;;;;-2.78;96.74;91826.94;4870959;29;20029;-81
2023/11/26 04:38:46;;;;;;;6.45;3.95;;;;;;;-2.83;96.64;91838.19;4871111;29;20035;-82
2023/11/26 04:41:12;;;;;;;7.13;3.83;;;;;;;-2.84;96.09;91854.91;4871301;29;20056;-82
2023/11/26 04:43:37;;;;;;;7.18;3.92;;;;;;;-2.91;95.74;91834.41;4870115;29;20201;-82
2023/11/26 04:46:04;;;;;;;9.73;3.92;;;;;;;-2.91;95.78;91844.03;4871266;29;20029;-82
2023/11/26 04:48:29;;;;;;;5.70;3.45;;;;;;;-2.94;96.11;91850.56;4870051;29;20056;-82
2023/11/26 04:50:56;;;;;;;6.53;3.53;;;;;;;-2.89;95.95;91853.13;4871229;29;20029;-82
2023/11/26 04:53:23;;;;;;;5.30;2.83;;;;;;;-2.89;94.60;91866.16;4871178;29;20041;-82
2023/11/26 04:55:49;;;;;;;6.63;3.45;;;;;;;-2.99;94.32;91879.31;4871197;29;20029;-82
2023/11/26 04:58:15;;;;;;;7.30;3.58;;;;;;;-3.03;94.54;91857.47;4871233;29;20316;-82
2023/11/26 05:00:40;;;;;;;5.10;3.22;;;;;;;-2.95;95.20;91876.91;4870776;29;20398;-82
2023/11/26 05:03:06;;;;;;;4.93;3.00;;;;;;;-3.03;93.75;91866.06;4870999;29;21435;-83
2023/11/26 05:05:32;;;;;;;8.23;2.97;;;;;;;-3.04;93.70;91897.59;4871152;29;20025;-83
2023/11/26 05:07:57;;;;;;;5.90;3.05;;;;;;;-3.04;92.78;91884.56;4871309;29;20032;-83
2023/11/26 05:10:24;;;;;;;4.90;2.90;;;;;;;-3.05;92.03;91904.66;4870989;29;20025;-83
2023/11/26 05:12:49;;;;;;;4.22;2.78;;;;;;;-3.06;92.71;91910.16;4869059;29;20029;-79
2023/11/26 05:15:15;;;;;;;4.97;2.95;;;;;;;-3.13;92.79;91907.09;4870398;29;20328;-79
2023/11/26 05:17:41;;;;;;;8.98;3.30;;;;;;;-3.15;91.35;91927.44;4870524;29;20021;-79
2023/11/26 05:20:13;;;;;;;4.60;2.50;;;;;;;-3.25;91.82;91926.47;4870290;29;20044;-80
2023/11/26 05:22:38;;;;;;;;;;;;;;;-3.23;92.80;91947.81;4870660;29;20037;-79
2023/11/26 05:25:05;;;;;;;4.05;2.38;;;;;;;-3.31;91.98;91956.25;4870148;29;20095;-81
2023/11/26 05:27:31;;;;;;;6.20;2.85;;;;;;;-3.28;92.48;91962.72;4870274;29;20092;-82
2023/11/26 05:29:56;;;;;;;5.03;2.67;;;;;;;-3.29;91.82;91984.63;4871098;29;20231;-82
2023/11/26 05:32:22;;;;;;;4.35;1.90;;;;;;;-3.30;90.78;91988.28;4870859;29;20037;-82
2023/11/26 05:34:48;;;;;;;7.70;2.85;;;;;;;-3.37;89.63;91977.41;4870819;29;20320;-82
2023/11/26 05:37:13;;;;;;;5.32;1.88;;;;;;;-3.40;89.13;91994.34;4870758;29;20038;-82
2023/11/26 05:39:40;;;;;;;6.22;2.50;;;;;;;-3.33;90.02;92012.28;4869554;29;20049;-82
2023/11/26 05:42:06;;;;;;;4.45;2.28;;;;;;;-3.41;90.19;92020.69;4869541;29;20213;-82
2023/11/26 05:44:31;;;;;;;5.78;2.20;;;;;;;-3.37;89.57;92050.34;4870499;29;20285;-80
2023/11/26 05:46:57;;;;;;;4.95;2.10;;;;;;;-3.44;88.51;92050.63;4870777;29;20033;-81
2023/11/26 05:49:22;;;;;;;4.63;2.28;;;;;;;-3.46;89.19;92044.91;4870489;29;20223;-82
2023/11/26 05:51:48;;;;;;;5.85;2.58;;;;;;;-3.43;88.53;92042.56;4870810;29;20327;-82
2023/11/26 05:54:14;;;;;;;4.60;2.25;;;;;;;-3.47;88.87;92062.38;4870379;29;20045;-82
2023/11/26 05:56:44;;;;;;;4.45;2.53;;;;;;;-3.51;88.25;92087.41;4870776;29;20090;-84
2023/11/26 05:59:09;;;;;;;4.47;1.95;;;;;;;-3.49;88.43;92074.13;4870533;29;20036;-83
2023/11/26 06:01:35;;;;;;;3.70;1.90;;;;;;;-3.56;89.41;92084.84;4870511;29;20018;-82
2023/11/26 06:04:00;;;;;;;3.53;1.88;;;;;;;-3.54;87.48;92119.22;4870175;29;20021;-83
2023/11/26 06:06:26;;;;;;;3.53;1.90;;;;;;;-3.52;87.92;92098.09;4870546;29;20320;-83
2023/11/26 06:08:51;;;;;;;4.53;2.33;;;;;;;-3.51;87.11;92113.44;4870664;29;20026;-83
2023/11/26 06:11:17;;;;;;;3.40;1.70;;;;;;;-3.46;86.11;92120.44;4870585;29;20056;-82
2023/11/26 06:13:43;;;;;;;9.80;2.78;;;;;;;-3.51;87.46;92143.94;4870119;29;20142;-81
2023/11/26 06:16:10;;;;;;;4.45;2.05;;;;;;;-3.51;87.33;92131.69;4870165;29;20033;-81
2023/11/26 06:18:37;;;;;;;4.95;2.30;;;;;;;-3.51;86.94;92149.91;4870011;29;20041;-84
2023/11/26 06:21:03;;;;;;;3.90;1.98;;;;;;;-3.51;86.87;92131.69;4870498;29;20025;-85
2023/11/26 06:23:29;;;;;;;3.53;2.00;;;;;;;-3.53;86.80;92131.16;4870741;29;20033;-85
2023/11/26 06:25:54;;;;;;;5.03;2.47;;;;;;;-3.64;86.40;92166.91;4874293;29;20073;-84
2023/11/26 06:28:20;;;;;;;3.65;2.15;;;;;;;-3.60;87.29;92154.13;4874116;29;20022;-84
2023/11/26 06:30:45;;;;;;;4.53;2.05;;;;;;;-3.64;86.52;92129.69;4872772;29;20025;-83
2023/11/26 06:33:11;;;;;;;7.00;2.00;;;;;;;-3.69;88.16;92200.00;4874256;29;20021;-85
2023/11/26 06:35:36;;;;;;;4.40;2.63;;;;;;;-3.71;87.36;92181.25;4874454;29;20343;-84
2023/11/26 06:38:02;;;;;;;3.75;2.22;;;;;;;-3.76;86.28;92189.09;4873753;29;20340;-84
2023/11/26 06:40:28;;;;;;;3.45;1.95;;;;;;;-3.75;87.25;92199.22;4873353;29;20105;-82
2023/11/26 06:42:54;;;;;;;3.90;1.77;;;;;;;-3.76;87.01;92199.50;4872979;29;20021;-82
2023/11/26 06:45:20;;;;;;;5.72;1.77;;;;;;;-3.73;87.43;92230.22;4872825;29;20033;-80
2023/11/26 06:47:46;;;;;;;4.15;1.95;;;;;;;-3.73;86.57;92198.97;4872765;29;20029;-80
2023/11/26 06:50:12;;;;;;;2.85;1.60;;;;;;;-3.72;87.83;92237.00;4872520;29;20257;-80
2023/11/26 06:52:37;;;;;;;10.68;2.72;;;;;;;-3.74;86.36;92228.66;4871291;29;20029;-80
2023/11/26 06:55:05;;;;;;;3.80;2.10;;;;;;;-3.78;85.40;92233.59;4872656;29;20331;-88
2023/11/26 06:57:32;;;;;;;6.22;2.55;;;;;;;-3.80;86.76;92229.72;4875309;29;20343;-81
2023/11/26 06:59:58;;;;;;;5.25;2.50;;;;;;;-3.80;85.96;92242.72;4872611;29;20029;-81
2023/11/26 07:02:25;;;;;;;5.30;2.28;;;;;;;-3.84;85.47;92260.69;4872554;29;20029;-82
2023/11/26 07:04:51;;;;;;;3.72;1.80;;;;;;;-3.83;87.23;92260.44;4872403;29;20272;-84
2023/11/26 07:07:20;;;;;;;5.60;2.47;;;;;;;-3.83;86.14;92265.66;4872810;29;20033;-86
2023/11/26 07:09:46;;;;;;;6.32;2.10;;;;;;;-3.87;86.24;92269.81;4871351;29;20029;-84
2023/11/26 07:12:12;;;;;;;4.57;2.70;;;;;;;-3.86;85.97;92263.56;4872484;29;20028;-84
2023/11/26 07:14:38;;;;;;;4.22;2.22;;;;;;;-3.80;85.52;92285.16;4872776;29;20017;-84
2023/11/26 07:17:05;;;;;;;6.05;2.58;;;;;;;-3.74;85.02;92276.31;4872234;29;20050;-84
2023/11/26 07:19:30;;;;;;;4.85;2.30;;;;;;;-3.85;86.22;92301.56;4872360;29;20021;-78
2023/11/26 07:21:56;;;;;;;6.53;3.13;;;;;;;-3.86;86.53;92289.59;4872508;29;20028;-80
2023/11/26 07:24:21;;;;;;;5.22;2.63;;;;;;;-3.81;85.81;92285.41;4872117;29;20265;-78
2023/11/26 07:26:48;;;;;;;6.05;2.30;;;;;;;-3.85;84.53;92327.63;4872105;29;20034;-80
2023/11/26 07:29:13;;;;;;;7.68;2.47;;;;;;;-3.78;86.07;92297.94;4871757;29;20080;-79
2023/11/26 07:31:39;;;;;;;6.78;2.85;;;;;;;-3.77;86.42;92323.69;4871708;29;20053;-77
2023/11/26 07:34:05;;;;;;;3.80;2.40;;;;;;;-3.69;85.09;92338.78;4871512;29;20315;-76
2023/11/26 07:36:32;;;;;;;4.45;2.03;;;;;;;-3.55;86.19;92356.47;4870391;29;20281;-76
2023/11/26 07:38:58;;;;;;;9.05;2.58;;;;;;;-3.55;84.42;92346.06;4871509;29;20033;-76
2023/11/26 07:41:24;;;;;;;22.65;3.45;;;;;;;-3.60;83.42;92354.66;4871454;29;20040;-76
2023/11/26 07:43:51;;;;;;;5.47;2.00;;;;;;;-3.60;83.37;92396.34;4871077;29;20392;-76
2023/11/26 07:46:18;;;;;;;5.97;2.50;;;;;;;-3.64;83.80;92383.06;4870969;29;20029;-76
2023/11/26 07:48:46;;;;;;;5.60;2.45;;;;;;;-3.65;82.91;92376.25;4870903;29;20062;-76
2023/11/26 07:51:12;;;;;;;4.05;1.80;;;;;;;-3.67;84.25;92367.16;4870698;29;20029;-76
2023/11/26 07:53:39;;;;;;;4.65;2.22;;;;;;;-3.68;84.06;92357.81;4871045;29;20041;-76
2023/11/26 07:56:05;;;;;;;6.97;3.08;;;;;;;-3.65;84.20;92362.47;4871138;29;20065;-76
2023/11/26 07:58:33;;;;;;;4.90;2.33;;;;;;;-3.74;85.20;92384.88;4870995;29;20033;-77
2023/11/26 08:01:01;;;;;;;8.77;2.47;;;;;;;-3.75;84.18;92389.28;4871231;29;20041;-76
2023/11/26 08:03:27;;;;;;;4.15;2.10;;;;;;;-3.72;84.08;92388.78;4871144;29;20227;-76
2023/11/26 08:05:53;;;;;;;4.82;2.30;;;;;;;-3.66;83.35;92403.38;4871107;29;20048;-76
2023/11/26 08:08:21;;;;;;;5.45;3.35;;;;;;;-3.67;83.42;92388.75;4871013;29;20049;-76
2023/11/26 08:10:51;;;;;;;6.57;3.08;;;;;;;-3.65;82.73;92398.94;4870838;29;20025;-76
2023/11/26 08:13:22;;;;;;;6.50;3.15;;;;;;;-3.65;83.10;92386.69;4871064;29;20108;-76
2023/11/26 08:15:51;;;;;;;4.72;2.20;;;;;;;-3.65;82.23;92409.34;4871109;29;20097;-76
2023/11/26 08:18:18;;;;;;;3.97;2.50;;;;;;;-3.65;83.06;92410.13;4870897;29;20161;-76
2023/11/26 08:20:44;;;;;;;3.15;1.98;;;;;;;-3.59;82.30;92418.72;4870841;29;20220;-77
2023/11/26 08:23:12;;;;;;;6.63;2.10;;;;;;;-3.62;83.34;92414.06;4870665;29;20031;-77
2023/11/26 08:25:39;;;;;;;3.90;2.05;;;;;;;-3.65;82.38;92412.72;4870861;29;20069;-77
2023/11/26 08:28:06;;;;;;;7.95;2.53;;;;;;;-3.67;82.07;92432.25;4870774;29;20036;-76
2023/11/26 08:30:41;;;;;;;5.32;2.65;;;;;;;-3.63;82.07;92521.84;4869491;29;20244;-76
2023/11/26 08:33:07;;;;;;;3.63;1.92;;;;;;;-3.63;81.10;92451.53;4870732;29;20021;-76
2023/11/26 08:35:33;;;;;;;6.18;2.42;;;;;;;-3.67;80.69;92463.50;4870675;29;20188;-76
2023/11/26 08:38:01;;;;;;;4.25;1.80;;;;;;;-3.62;79.05;92466.13;4870651;29;20074;-76
2023/11/26 08:40:33;;;;;;;3.22;1.50;;;;;;;-3.64;80.97;92478.63;4870782;29;20037;-77
2023/11/26 08:42:58;;;;;;;5.10;2.30;;;;;;;-3.60;81.52;92484.09;4870513;29;20257;-77
2023/11/26 08:45:24;;;;;;;5.32;2.75;;;;;;;-3.60;81.32;92500.50;4870174;29;20037;-70
2023/11/26 08:47:51;;;;;;;9.98;2.30;;;;;;;-3.61;81.33;92498.94;4869666;29;20089;-71
2023/11/26 08:50:17;;;;;;;3.50;1.95;;;;;;;-3.61;79.66;92498.16;4869919;29;20025;-71
2023/11/26 08:52:42;;;;;;;4.25;2.17;;;;;;;-3.70;79.42;92521.34;4870203;29;20055;-71
2023/11/26 08:55:09;;;;;;;4.03;1.88;;;;;;;-3.71;78.82;92478.09;4870175;29;20296;-72
2023/11/26 08:57:39;;;;;;;3.60;1.90;;;;;;;-3.76;79.54;92517.94;4869800;29;20342;-72
2023/11/26 09:00:09;;;;;;;2.97;1.30;;;;;;;-3.81;79.62;92527.53;4869977;29;20332;-72
2023/11/26 09:02:39;;;;;;;4.32;2.20;;;;;;;-3.73;79.68;92540.06;4870238;29;20034;-73
2023/11/26 09:05:08;;;;;;;4.70;2.17;;;;;;;-3.67;77.42;92546.84;4870277;29;20077;-71
2023/11/26 09:07:41;;;;;;;4.85;1.70;;;;;;;-3.56;78.71;92527.59;4869947;29;20323;-78
2023/11/26 09:10:07;;;;;;;2.78;1.80;;;;;;;-3.53;77.60;92565.38;4870214;29;20028;-78
2023/11/26 09:12:32;;;;;;;5.22;1.83;;;;;;;-3.52;77.88;92538.28;4869950;29;20033;-72
2023/11/26 09:14:58;;;;;;;4.55;1.80;;;;;;;-3.44;78.56;92537.75;4870022;29;20332;-72
2023/11/26 09:17:24;;;;;;;3.92;2.20;;;;;;;-3.34;78.71;92545.59;4869867;29;20329;-73
2023/11/26 09:19:49;;;;;;;3.65;1.52;;;;;;;-3.27;75.07;92576.63;4869971;29;20049;-74
2023/11/26 09:22:15;;;;;;;3.83;1.90;;;;;;;-3.28;75.96;92541.97;4869932;29;20033;-73
2023/11/26 09:24:40;;;;;;;6.88;2.22;;;;;;;-3.24;75.03;92565.66;4869726;29;20270;-73
2023/11/26 09:27:06;;;;;;;4.13;1.75;;;;;;;-3.21;74.49;92578.19;4869873;29;20222;-69
2023/11/26 09:29:31;;;;;;;2.88;1.65;;;;;;;-3.11;75.55;92575.59;4869995;29;20118;-77
2023/11/26 09:31:57;;;;;;;3.03;1.65;;;;;;;-3.13;74.41;92561.28;4870125;29;20262;-73
2023/11/26 09:34:24;;;;;;;4.38;2.08;;;;;;;-3.13;74.21;92584.72;4870170;29;20041;-73
2023/11/26 09:36:52;;;;;;;4.35;2.03;;;;;;;-3.25;73.85;92598.78;4869948;29;20037;-73
2023/11/26 09:39:18;;;;;;;4.63;1.92;;;;;;;-3.24;75.14;92573.50;4870022;29;20029;-73
2023/11/26 09:41:43;;;;;;;2.20;1.30;;;;;;;-3.36;73.02;92557.31;4870009;29;20026;-72
2023/11/26 09:44:09;;;;;;;2.72;1.48;;;;;;;-3.35;74.49;92545.88;4868607;29;20041;-72
2023/11/26 09:46:36;;;;;;;3.35;1.75;;;;;;;-3.43;72.88;92571.38;4869694;29;20026;-74
2023/11/26 09:49:05;;;;;;;4.65;2.00;;;;;;;-3.49;74.82;92564.59;4869787;29;20026;-74
2023/11/26 09:51:32;;;;;;;3.70;1.67;;;;;;;-3.46;75.10;92577.13;4869783;29;20033;-74
2023/11/26 09:53:57;;;;;;;5.28;2.20;;;;;;;-3.38;74.32;92575.03;4869739;29;20104;-74
2023/11/26 09:56:24;;;;;;;3.72;1.80;;;;;;;-3.21;75.11;92583.41;4869774;29;20025;-74
2023/11/26 09:58:50;;;;;;;4.07;1.83;;;;;;;-3.15;73.73;92586.81;4869780;29;20314;-74
2023/11/26 10:01:15;;;;;;;5.60;2.13;;;;;;;-3.09;74.82;92599.59;4873467;29;20078;-73
2023/11/26 10:04:05;;;;;;;10.32;2.35;;;;;;;-3.03;72.71;92605.59;4873135;29;20074;-73
2023/11/26 10:06:31;;;;;;;10.38;1.70;;;;;;;-3.00;71.63;92597.22;4873331;29;20319;-73
2023/11/26 10:08:57;;;;;;;3.88;1.85;;;;;;;-2.97;71.82;92601.13;4872204;29;20040;-73
2023/11/26 10:11:24;;;;;;;3.58;1.83;;;;;;;-3.03;76.01;92582.13;4872988;29;20052;-73
2023/11/26 10:13:51;;;;;;;4.43;1.92;;;;;;;-3.06;72.88;92599.03;4871933;29;20476;-73
2023/11/26 10:16:32;;;;;;;4.30;2.03;;;;;;;-2.96;75.13;92603.50;4873022;29;20063;-73
2023/11/26 10:19:00;;;;;;;2.45;1.30;;;;;;;-2.82;73.63;92593.34;4873071;29;20029;-72
2023/11/26 10:21:26;;;;;;;4.40;1.73;;;;;;;-2.70;72.87;92637.41;4873113;29;20057;-72
2023/11/26 10:23:52;;;;;;;6.70;2.30;;;;;;;-2.70;72.42;92606.13;4872855;29;20205;-73
2023/11/26 10:26:22;;;;;;;5.13;2.40;;;;;;;-2.62;73.36;92613.41;4872920;29;20025;-72
2023/11/26 10:29:12;;;;;;;4.20;1.73;;;;;;;-2.44;71.72;92619.94;4872834;29;20039;-73
2023/11/26 10:31:39;;;;;;;3.72;2.05;;;;;;;-2.51;72.07;92609.75;4872960;29;20040;-73
2023/11/26 10:34:15;;;;;;;4.25;1.98;;;;;;;-2.61;70.33;92643.66;4872643;29;20029;-73
2023/11/26 10:36:41;;;;;;;4.57;2.08;;;;;;;-2.57;70.86;92636.88;4872551;29;20071;-73
2023/11/26 10:39:09;;;;;;;4.57;1.58;;;;;;;-2.55;71.88;92626.97;4872662;29;20040;-72
2023/11/26 10:41:36;;;;;;;4.82;2.13;;;;;;;-2.46;70.57;92624.63;4872941;29;20224;-73
2023/11/26 10:44:03;;;;;;;2.47;1.63;;;;;;;-2.39;69.82;92617.31;4872455;29;20209;-72
2023/11/26 10:46:33;;;;;;;5.20;1.90;;;;;;;-2.34;71.81;92634.78;4872688;29;20056;-73
2023/11/26 10:49:35;;;;;;;9.57;1.67;;;;;;;-2.27;69.92;92638.69;4872716;29;20029;-73
2023/11/26 10:52:28;;;;;;;4.50;1.85;;;;;;;-2.28;70.89;92655.41;4872448;29;20049;-73
2023/11/26 10:55:02;;;;;;;;;;;;;;;-2.20;71.72;92667.13;4870111;29;20053;-73
2023/11/26 10:57:37;;;;;;;3.95;2.00;;;;;;;-2.16;73.32;92647.28;4872395;29;19908;-73
2023/11/26 11:00:06;;;;;;;3.17;1.90;;;;;;;-2.25;69.71;92654.88;4872294;29;20082;-74
2023/11/26 11:02:35;;;;;;;5.35;2.50;;;;;;;-2.37;72.28;92650.97;4872202;29;20044;-73
2023/11/26 11:05:04;;;;;;;3.47;1.98;;;;;;;-2.30;70.74;92656.69;4871258;29;20045;-74
2023/11/26 11:07:31;;;;;;;2.42;1.55;;;;;;;-2.28;71.17;92665.84;4872612;29;20025;-74
2023/11/26 11:10:18;;;;;;;2.28;1.15;;;;;;;-2.27;70.46;92662.19;4871567;29;20025;-74
2023/11/26 11:12:52;;;;;;;5.32;1.73;;;;;;;-2.23;72.58;92683.31;4871007;29;20030;-74
2023/11/26 11:15:29;;;;;;;6.00;2.08;;;;;;;-2.27;68.71;92717.00;4870776;29;20074;-74
2023/11/26 11:17:55;;;;;;;4.47;2.00;;;;;;;-2.41;68.78;92700.28;4872069;29;20021;-74
2023/11/26 11:21:00;;;;;;;5.00;1.77;;;;;;;-2.39;69.38;92716.47;4871818;29;20037;-73
2023/11/26 11:23:33;;;;;;;2.55;1.30;;;;;;;-2.40;69.61;92707.09;4871624;29;20152;-73
2023/11/26 11:26:00;;;;;;;2.95;1.80;;;;;;;-2.42;69.51;92709.19;4872018;29;20223;-73
2023/11/26 11:29:00;;;;;;;6.63;2.45;;;;;;;-2.36;72.36;92731.63;4871983;29;20033;-73
2023/11/26 11:31:47;;;;;;;4.57;1.77;;;;;;;-2.31;71.63;92751.72;4861479;29;20076;-74
2023/11/26 11:34:12;;;;;;;2.50;1.52;;;;;;;-2.36;68.90;92720.38;4871642;29;20100;-73